Time;durP1;ratioP1;P1;durP2;ratioP2;P2;SDS_P1;SDS_P2;PMS_P1;PMS_P2;Temp;Humidity;BMP_temperature;BMP_pressure;BME280_temperature;BME280_humidity;BME280_pressure;Samples;Min_cycle;Max_cycle;Signal;HPM_P1;HPM_P2
2023/01/29 00:01:05;;;;;;;;;43.50;35.50;;;;;3.43;58.20;102456.13;5017072;28;45398;-59
2023/01/29 00:03:32;;;;;;;;;49.00;35.40;;;;;3.49;57.94;102453.78;5032321;28;45528;-60
2023/01/29 00:05:58;;;;;;;;;43.00;39.75;;;;;3.47;58.31;102455.75;5032114;28;45407;-59
2023/01/29 00:08:23;;;;;;;;;41.50;33.00;;;;;3.43;57.41;102437.13;5031895;28;45275;-60
2023/01/29 00:10:49;;;;;;;;;44.25;38.25;;;;;3.50;57.35;102452.81;5016325;28;45429;-59
2023/01/29 00:13:14;;;;;;;;;48.25;38.00;;;;;3.49;58.05;102447.50;5031949;28;45417;-59
2023/01/29 00:15:40;;;;;;;;;45.25;40.50;;;;;3.45;57.82;102448.72;5016076;28;45291;-61
2023/01/29 00:18:05;;;;;;;;;43.25;37.00;;;;;3.45;58.01;102446.00;5016404;28;45350;-60
2023/01/29 00:20:31;;;;;;;;;46.00;36.00;;;;;3.25;57.87;102424.91;5015262;28;45279;-61
2023/01/29 00:22:56;;;;;;;;;42.75;36.75;;;;;3.42;57.60;102455.25;5016615;28;45367;-61
2023/01/29 00:25:22;;;;;;;;;58.25;42.00;;;;;3.43;58.14;102447.97;5016672;28;45359;-59
2023/01/29 00:27:47;;;;;;;;;43.75;37.50;;;;;3.20;57.82;102415.41;5031541;28;47948;-60
2023/01/29 00:30:15;;;;;;;;;54.75;39.75;;;;;3.20;57.98;102437.97;5031510;28;45460;-61
2023/01/29 00:32:40;;;;;;;;;45.00;35.40;;;;;3.20;57.97;102446.09;5016409;28;45302;-60
2023/01/29 00:35:07;;;;;;;;;54.75;40.00;;;;;3.27;58.44;102445.63;5031535;28;45651;-60
2023/01/29 00:37:32;;;;;;;;;24.00;23.60;;;;;3.02;58.14;102399.59;5014936;28;47351;-62
2023/01/29 00:39:58;;;;;;;;;36.00;31.00;;;;;3.28;58.05;102429.22;5015765;28;45383;-59
2023/01/29 00:45:09;;;;;;;;;51.80;34.60;;;;;3.06;58.38;102408.34;5016086;28;45410;-59
2023/01/29 00:47:35;;;;;;;;;40.60;32.60;;;;;3.14;58.46;102434.88;5016066;28;45405;-59
2023/01/29 00:50:01;;;;;;;;;53.60;41.40;;;;;2.79;58.54;102374.28;5016147;28;45366;-58
2023/01/29 00:52:27;;;;;;;;;35.40;35.20;;;;;3.20;58.76;102432.53;5016664;28;45477;-59
2023/01/29 00:54:54;;;;;;;;;41.50;36.75;;;;;3.22;58.35;102425.16;5016106;28;45283;-59
2023/01/29 00:57:20;;;;;;;;;48.50;42.00;;;;;3.09;58.83;102397.22;5016031;28;46150;-59
2023/01/29 00:59:45;;;;;;;;;46.75;35.00;;;;;3.24;58.83;102435.88;5016167;28;45353;-59
2023/01/29 01:04:55;;;;;;;;;46.25;37.50;;;;;3.25;58.84;102434.88;5014989;28;45441;-59
2023/01/29 01:07:21;;;;;;;;;52.00;39.50;;;;;3.24;58.45;102428.59;5014217;28;47201;-59
2023/01/29 01:12:30;;;;;;;;;39.80;37.80;;;;;3.32;58.41;102424.41;5028735;28;45842;-60
2023/01/29 01:14:55;;;;;;;;;43.50;35.00;;;;;3.15;58.44;102399.47;5014680;28;45393;-60
2023/01/29 01:17:21;;;;;;;;;33.25;24.75;;;;;3.30;58.78;102421.81;5015354;28;46082;-60
2023/01/29 01:19:47;;;;;;;;;43.00;34.00;;;;;3.31;58.72;102425.41;5015679;28;45341;-60
2023/01/29 01:22:12;;;;;;;;;46.50;39.75;;;;;3.18;58.33;102420.06;5014172;28;45558;-60
2023/01/29 01:24:38;;;;;;;;;38.75;32.50;;;;;3.19;58.85;102428.09;5003148;28;45513;-59
2023/01/29 01:27:03;;;;;;;;;41.00;38.75;;;;;3.27;58.50;102418.47;5012369;28;46025;-59
2023/01/29 01:29:29;;;;;;;;;44.75;33.25;;;;;3.24;58.31;102427.72;5012466;28;45179;-59
2023/01/29 01:31:54;;;;;;;;;49.75;38.00;;;;;3.26;58.53;102431.19;5014124;28;45240;-59
2023/01/29 01:34:21;;;;;;;;;55.75;42.75;;;;;3.02;59.02;102394.16;5014678;28;45270;-60
2023/01/29 01:36:46;;;;;;;;;49.80;40.80;;;;;3.24;58.94;102431.31;5015703;28;45940;-59
2023/01/29 01:39:12;;;;;;;;;39.00;29.50;;;;;2.97;58.58;102391.81;5015392;28;45387;-59
2023/01/29 01:41:37;;;;;;;;;41.75;37.25;;;;;3.21;58.17;102436.13;5015575;28;45414;-60
2023/01/29 01:44:03;;;;;;;;;46.25;38.00;;;;;3.22;58.70;102441.44;5015662;28;45292;-60
2023/01/29 01:46:34;;;;;;;;;52.50;42.25;;;;;3.14;58.98;102427.59;5015088;28;46375;-60
2023/01/29 01:49:15;;;;;;;;;52.40;37.60;;;;;3.18;58.81;102439.06;5015412;28;45369;-61
2023/01/29 01:51:48;;;;;;;;;46.40;37.20;;;;;3.01;58.85;102397.88;5031126;28;45446;-61
2023/01/29 01:54:23;;;;;;;;;56.75;39.50;;;;;3.23;58.76;102442.28;5030880;28;45381;-60
2023/01/29 01:56:54;;;;;;;;;52.25;41.25;;;;;3.01;58.90;102408.72;5015407;28;46201;-60
2023/01/29 01:59:19;;;;;;;;;51.00;39.20;;;;;3.17;59.03;102434.63;5029808;28;45223;-60
2023/01/29 02:01:48;;;;;;;;;46.25;37.75;;;;;3.18;59.18;102444.50;5030776;28;45364;-60
2023/01/29 02:09:53;;;;;;;;;58.20;39.20;;;;;3.15;59.10;102436.59;5013612;28;45703;-60
2023/01/29 02:12:19;;;;;;;;;47.20;40.20;;;;;3.17;58.81;102451.78;5014872;28;45429;-60
2023/01/29 02:14:45;;;;;;;;;63.25;44.00;;;;;3.16;59.38;102457.31;5030284;28;45677;-60
2023/01/29 02:17:14;;;;;;;;;47.00;36.50;;;;;3.10;59.37;102443.25;5014815;28;45518;-60
2023/01/29 02:20:01;;;;;;;;;18.60;10.80;;;;;3.13;59.58;102446.72;5014830;28;45267;-63
2023/01/29 02:22:47;;;;;;;;;63.25;44.00;;;;;2.85;59.26;102412.59;5030147;28;45242;-60
2023/01/29 02:25:16;;;;;;;;;48.25;41.25;;;;;2.86;59.41;102416.19;5047330;28;45415;-61
2023/01/29 02:27:47;;;;;;;;;47.75;40.00;;;;;2.87;59.45;102409.78;5014391;28;45931;-60
2023/01/29 02:30:16;;;;;;;;;44.40;36.80;;;;;3.06;59.22;102447.22;5014777;28;45490;-59
2023/01/29 02:32:59;;;;;;;;;49.00;41.40;;;;;2.96;59.51;102430.78;5030118;28;45456;-60
2023/01/29 02:35:41;;;;;;;;;58.50;41.50;;;;;3.00;60.19;102438.66;5030306;28;45360;-60
2023/01/29 02:38:19;;;;;;;;;53.80;40.00;;;;;3.00;59.64;102441.38;5015093;28;45261;-60
2023/01/29 02:40:46;;;;;;;;;52.20;40.60;;;;;2.76;59.84;102409.75;5018271;28;45664;-60
2023/01/29 02:43:53;;;;;;;;;49.60;42.20;;;;;2.98;60.07;102455.06;5033238;28;45445;-60
2023/01/29 02:46:23;;;;;;;;;59.50;42.00;;;;;3.01;59.47;102453.97;5021491;28;45597;-60
2023/01/29 02:48:57;;;;;;;;;44.25;36.25;;;;;2.97;59.84;102428.91;5033142;28;45582;-61
2023/01/29 02:51:26;;;;;;;;;46.80;42.40;;;;;2.70;59.84;102386.69;5032984;28;45421;-59
2023/01/29 02:54:45;;;;;;;;;38.00;33.20;;;;;3.02;59.85;102431.25;5016594;28;45417;-61
2023/01/29 02:57:24;;;;;;;;;37.50;32.50;;;;;3.01;60.26;102426.81;5035341;28;45603;-61
2023/01/29 03:00:06;;;;;;;;;49.75;40.50;;;;;2.62;59.96;102365.59;5016682;28;45481;-61
2023/01/29 03:02:34;;;;;;;;;47.20;41.60;;;;;2.93;59.99;102420.16;5011145;28;45460;-61
2023/01/29 03:05:02;;;;;;;;;46.40;39.20;;;;;2.94;60.48;102419.16;5033057;28;45411;-61
2023/01/29 03:07:45;;;;;;;;;45.75;36.75;;;;;2.96;60.02;102406.38;5033154;28;45460;-61
2023/01/29 03:10:15;;;;;;;;;45.25;39.50;;;;;2.96;60.43;102403.66;5016127;28;45570;-61
2023/01/29 03:12:41;;;;;;;;;45.20;39.00;;;;;2.96;59.97;102405.50;5032712;28;45243;-61
2023/01/29 03:15:17;;;;;;;;;51.25;43.75;;;;;2.87;59.96;102382.66;5016124;28;45295;-62
2023/01/29 03:18:06;;;;;;;;;57.75;39.75;;;;;2.81;60.43;102381.31;5030871;28;45575;-61
2023/01/29 03:20:39;;;;;;;;;52.00;40.00;;;;;2.89;60.51;102398.81;5032558;28;46794;-60
2023/01/29 03:23:08;;;;;;;;;48.60;42.20;;;;;2.91;60.46;102413.13;5032046;28;45595;-60
2023/01/29 03:33:53;;;;;;;;;64.75;47.00;;;;;2.87;61.11;102392.66;5015986;28;45408;-60
2023/01/29 03:36:36;;;;;;;;;40.75;35.75;;;;;2.93;61.25;102412.03;5015832;28;45329;-60
2023/01/29 03:39:05;;;;;;;;;57.25;44.00;;;;;2.92;61.00;102409.41;5032058;28;45287;-60
2023/01/29 03:41:36;;;;;;;;;55.75;46.00;;;;;2.92;61.54;102412.13;5031330;28;46713;-62
2023/01/29 03:44:20;;;;;;;;;56.60;42.00;;;;;2.71;61.66;102372.16;5031817;28;45377;-60
2023/01/29 03:46:56;;;;;;;;;41.75;36.75;;;;;2.91;61.49;102414.00;5016943;28;45224;-60
2023/01/29 03:49:42;;;;;;;;;62.75;48.25;;;;;2.89;61.81;102412.38;5031944;28;45552;-60
2023/01/29 03:52:18;;;;;;;;;53.75;44.75;;;;;2.89;61.55;102406.97;5017125;28;45847;-60
2023/01/29 03:55:09;;;;;;;;;50.00;41.80;;;;;2.87;61.58;102417.91;5016010;28;45341;-60
2023/01/29 03:58:07;;;;;;;;;50.25;40.50;;;;;2.67;61.62;102378.81;5031022;28;45426;-60
2023/01/29 04:00:40;;;;;;;;;57.75;45.00;;;;;2.54;61.89;102366.22;5031335;28;45439;-59
2023/01/29 04:03:39;;;;;;;;;49.50;41.75;;;;;2.82;61.96;102403.84;4998794;28;46384;-60
2023/01/29 04:06:10;;;;;;;;;51.60;42.40;;;;;2.79;61.74;102407.69;4982594;28;45556;-60
2023/01/29 04:08:44;;;;;;;;;54.20;43.20;;;;;2.80;61.61;102409.41;5004524;28;45339;-61
2023/01/29 04:11:11;;;;;;;;;50.00;39.50;;;;;2.80;61.56;102400.41;5010941;28;45304;-63
2023/01/29 04:13:37;;;;;;;;;49.75;36.75;;;;;2.75;62.22;102402.59;5024639;28;47625;-60
2023/01/29 04:16:03;;;;;;;;;50.75;41.00;;;;;2.70;62.05;102405.69;5048466;28;46240;-61
2023/01/29 04:18:29;;;;;;;;;38.40;37.40;;;;;2.70;61.93;102409.28;5031551;28;45349;-60
2023/01/29 04:20:54;;;;;;;;;54.00;41.25;;;;;2.46;61.74;102360.53;5032008;28;45453;-60
2023/01/29 04:23:22;;;;;;;;;55.00;42.50;;;;;2.75;61.99;102405.31;5031554;28;45893;-60
2023/01/29 04:26:05;;;;;;;;;44.20;40.20;;;;;2.70;62.24;102398.41;5031676;28;45413;-61
2023/01/29 04:29:11;;;;;;;;;48.00;38.25;;;;;2.70;62.11;102411.97;5030632;28;45381;-61
2023/01/29 04:31:48;;;;;;;;;52.00;44.00;;;;;2.69;61.93;102412.09;5016097;28;45633;-61
2023/01/29 04:34:22;;;;;;;;;51.25;42.25;;;;;2.11;62.29;102323.44;5014977;28;45916;-61
2023/01/29 04:36:57;;;;;;;;;57.00;44.00;;;;;2.70;62.78;102413.81;5031736;28;45461;-61
2023/01/29 04:40:02;;;;;;;;;46.25;42.00;;;;;2.70;62.59;102416.53;5016459;28;45313;-61
2023/01/29 04:42:36;;;;;;;;;56.75;46.25;;;;;2.68;62.44;102410.38;5013934;28;45670;-61
2023/01/29 04:45:29;;;;;;;;;52.00;45.00;;;;;2.34;62.83;102350.63;5030839;28;45590;-60
2023/01/29 04:48:02;;;;;;;;;55.25;46.50;;;;;2.43;62.64;102369.75;5015757;28;45519;-61
2023/01/29 04:50:36;;;;;;;;;56.75;43.00;;;;;2.28;62.53;102352.81;5016601;28;45249;-61
2023/01/29 04:53:27;;;;;;;;;51.00;43.00;;;;;2.62;62.79;102419.81;5031133;28;45384;-60
2023/01/29 04:56:07;;;;;;;;;51.00;40.50;;;;;2.56;62.98;102423.88;5014012;28;45290;-60
2023/01/29 04:58:37;;;;;;;;;42.00;38.00;;;;;2.50;62.99;102418.91;5048065;28;45843;-61
2023/01/29 05:01:04;;;;;;;;;56.50;46.00;;;;;2.49;63.24;102428.03;5031187;28;45316;-60
2023/01/29 05:03:29;;;;;;;;;43.50;41.25;;;;;2.35;63.00;102412.81;5014777;28;45546;-61
2023/01/29 05:05:55;;;;;;;;;41.25;36.25;;;;;2.42;62.73;102415.94;5047612;28;47320;-61
2023/01/29 05:08:21;;;;;;;;;48.25;36.75;;;;;2.46;63.01;102420.16;5031121;28;45396;-61
2023/01/29 05:10:48;;;;;;;;;51.00;42.00;;;;;2.47;63.27;102424.59;5031219;28;45179;-62
2023/01/29 05:13:13;;;;;;;;;48.50;41.50;;;;;2.51;63.04;102428.78;5031085;28;45407;-61
2023/01/29 05:15:45;;;;;;;;;45.25;39.25;;;;;2.54;62.90;102424.97;5015901;28;45498;-60
2023/01/29 05:18:11;;;;;;;;;49.20;41.80;;;;;2.49;63.04;102425.34;5014232;28;45666;-60
2023/01/29 05:20:38;;;;;;;;;44.75;37.50;;;;;2.51;63.64;102419.81;5005444;28;45895;-60
2023/01/29 05:23:07;;;;;;;;;50.75;43.00;;;;;2.39;63.26;102403.47;5006976;28;45302;-60
2023/01/29 05:25:34;;;;;;;;;40.50;32.00;;;;;2.55;63.30;102415.84;4995376;28;46164;-59
2023/01/29 05:28:17;;;;;;;;;42.40;38.00;;;;;2.50;63.05;102410.78;5030570;28;45352;-60
2023/01/29 05:30:47;;;;;;;;;46.75;42.00;;;;;2.43;63.04;102394.16;5014769;28;45286;-61
2023/01/29 05:33:19;;;;;;;;;45.75;41.00;;;;;2.53;63.16;102405.16;5015504;28;45602;-60
2023/01/29 05:35:45;;;;;;;;;47.00;34.75;;;;;2.27;63.15;102355.63;5015298;28;46118;-60
2023/01/29 05:38:11;;;;;;;;;54.25;41.75;;;;;2.30;63.11;102364.41;5014067;28;45247;-61
2023/01/29 05:40:37;;;;;;;;;47.25;43.25;;;;;2.57;63.15;102400.34;5014345;28;45436;-60
2023/01/29 05:43:03;;;;;;;;;55.75;45.00;;;;;2.57;63.08;102408.50;5015417;28;45310;-59
2023/01/29 05:45:28;;;;;;;;;52.25;42.00;;;;;2.55;62.97;102414.03;5015413;28;45321;-60
2023/01/29 05:47:55;;;;;;;;;51.50;43.75;;;;;2.51;63.41;102408.97;5013608;28;45457;-58
2023/01/29 05:50:21;;;;;;;;;47.75;42.50;;;;;2.53;63.01;102416.00;5015428;28;45374;-60
2023/01/29 05:52:47;;;;;;;;;44.00;41.25;;;;;2.61;63.09;102425.38;5031020;28;45508;-60
2023/01/29 05:55:12;;;;;;;;;55.50;44.75;;;;;2.60;63.03;102407.38;5014882;28;46192;-59
2023/01/29 05:57:38;;;;;;;;;51.50;41.50;;;;;2.58;62.83;102418.34;5030259;28;46059;-60
2023/01/29 06:00:05;;;;;;;;;56.50;42.25;;;;;2.51;63.30;102407.09;5014769;28;45538;-60
2023/01/29 06:02:30;;;;;;;;;45.50;40.75;;;;;2.55;63.28;102413.13;5014189;28;45631;-59
2023/01/29 06:04:56;;;;;;;;;48.50;39.50;;;;;2.56;63.12;102417.59;5014885;28;45990;-60
2023/01/29 06:07:21;;;;;;;;;43.75;34.00;;;;;2.43;63.01;102404.13;5013524;28;45325;-59
2023/01/29 06:09:47;;;;;;;;;45.75;39.75;;;;;2.32;63.49;102371.53;5015032;28;45393;-59
2023/01/29 06:12:12;;;;;;;;;52.25;39.75;;;;;2.54;62.91;102412.28;5014031;28;45472;-59
2023/01/29 06:14:38;;;;;;;;;55.25;41.50;;;;;2.54;62.97;102409.59;5014461;28;46211;-55
2023/01/29 06:17:03;;;;;;;;;58.00;44.50;;;;;2.62;62.77;102421.69;5030159;28;45350;-59
2023/01/29 06:19:29;;;;;;;;;46.75;39.25;;;;;2.39;62.92;102380.91;5014675;28;45384;-63
2023/01/29 06:21:55;;;;;;;;;47.25;41.00;;;;;2.52;63.08;102416.09;5030149;28;45616;-59
2023/01/29 06:24:20;;;;;;;;;55.25;40.50;;;;;2.42;63.30;102410.53;5014533;28;45389;-60
2023/01/29 06:26:46;;;;;;;;;56.25;44.75;;;;;2.39;63.52;102405.31;5014868;28;45421;-60
2023/01/29 06:29:11;;;;;;;;;53.75;47.75;;;;;2.49;63.61;102433.47;5013856;28;45468;-61
2023/01/29 06:31:37;;;;;;;;;47.75;39.50;;;;;2.46;63.73;102433.72;5030267;28;45419;-59
2023/01/29 06:34:03;;;;;;;;;45.75;43.00;;;;;2.43;63.62;102428.50;5014439;28;46566;-61
2023/01/29 06:36:28;;;;;;;;;52.00;42.00;;;;;2.08;63.85;102373.28;5014658;28;45579;-59
2023/01/29 06:38:54;;;;;;;;;46.75;36.50;;;;;2.44;63.45;102441.94;5030060;28;45410;-59
2023/01/29 06:41:24;;;;;;;;;42.00;37.50;;;;;2.41;63.79;102441.31;5015140;28;45326;-59
2023/01/29 06:43:49;;;;;;;;;58.00;44.25;;;;;2.02;63.83;102371.03;5014614;28;46366;-59
2023/01/29 06:46:15;;;;;;;;;48.75;42.00;;;;;2.34;64.24;102434.63;5012729;28;45401;-60
2023/01/29 06:48:41;;;;;;;;;39.75;37.50;;;;;2.35;63.60;102436.34;5014642;28;45300;-60
2023/01/29 06:51:07;;;;;;;;;52.00;45.50;;;;;2.36;64.06;102443.50;5015049;28;45314;-60
2023/01/29 06:53:32;;;;;;;;;51.75;41.50;;;;;2.35;63.92;102447.19;5014065;28;46142;-59
2023/01/29 06:55:58;;;;;;;;;53.50;43.00;;;;;2.34;63.90;102450.91;5029777;28;45323;-59
2023/01/29 06:58:24;;;;;;;;;45.50;39.00;;;;;2.34;64.24;102440.91;5014419;28;45376;-60
2023/01/29 07:00:49;;;;;;;;;43.75;39.75;;;;;2.05;64.38;102391.63;5013508;28;45417;-60
2023/01/29 07:03:15;;;;;;;;;52.25;39.25;;;;;2.32;64.18;102445.59;5029630;28;45627;-59
2023/01/29 07:05:40;;;;;;;;;67.50;45.50;;;;;2.32;64.21;102448.28;5012964;28;45290;-60
2023/01/29 07:08:07;;;;;;;;;40.50;35.75;;;;;2.02;64.37;102403.53;5014580;28;45287;-61
2023/01/29 07:10:33;;;;;;;;;52.75;42.50;;;;;2.30;64.10;102453.81;5014337;28;45589;-61
2023/01/29 07:12:58;;;;;;;;;46.00;41.25;;;;;2.30;63.83;102442.13;5014200;28;47734;-61
2023/01/29 07:15:24;;;;;;;;;46.00;38.25;;;;;2.27;64.10;102445.94;5014047;28;45395;-61
2023/01/29 07:17:57;;;;;;;;;48.25;39.75;;;;;2.23;64.85;102443.56;5014342;28;45370;-63
2023/01/29 07:20:25;;;;;;;;;51.25;43.25;;;;;2.29;64.41;102452.09;4998299;28;45699;-62
2023/01/29 07:22:50;;;;;;;;;57.25;43.75;;;;;2.24;64.34;102438.03;5011108;28;46503;-61
2023/01/29 07:25:16;;;;;;;;;42.00;38.00;;;;;2.33;63.86;102443.75;5016086;28;45286;-60
2023/01/29 07:27:42;;;;;;;;;43.50;40.50;;;;;2.32;64.33;102439.28;5017295;28;45266;-60
2023/01/29 07:30:08;;;;;;;;;49.50;40.50;;;;;2.01;64.78;102397.28;5017838;28;45365;-60
2023/01/29 07:32:33;;;;;;;;;46.50;39.75;;;;;2.25;64.46;102442.44;5017257;28;46413;-60
2023/01/29 07:34:59;;;;;;;;;45.25;41.25;;;;;2.29;64.55;102440.38;5017217;28;45306;-60
2023/01/29 07:37:24;;;;;;;;;50.50;39.50;;;;;2.25;64.66;102434.31;5017780;28;45461;-60
2023/01/29 07:39:50;;;;;;;;;53.00;43.75;;;;;2.32;64.24;102442.00;5033009;28;45258;-60
2023/01/29 07:42:15;;;;;;;;;53.50;42.75;;;;;2.29;64.21;102434.97;5017234;28;45935;-61
2023/01/29 07:44:41;;;;;;;;;48.00;42.75;;;;;2.32;64.15;102436.56;5032405;28;45389;-60
2023/01/29 07:47:06;;;;;;;;;50.00;42.50;;;;;2.22;64.36;102422.84;5048973;28;45433;-61
2023/01/29 07:49:32;;;;;;;;;53.50;43.00;;;;;2.33;64.48;102431.03;5017416;28;45292;-60
2023/01/29 07:51:58;;;;;;;;;51.50;42.00;;;;;2.39;63.96;102449.56;5031836;28;45912;-61
2023/01/29 07:54:23;;;;;;;;;45.25;42.00;;;;;2.41;63.91;102446.75;5016910;28;45311;-61
2023/01/29 07:56:49;;;;;;;;;48.00;41.25;;;;;2.36;64.41;102449.81;5016982;28;45366;-60
2023/01/29 07:59:15;;;;;;;;;56.25;45.00;;;;;2.34;64.47;102456.31;5017142;28;45530;-60
2023/01/29 08:01:40;;;;;;;;;51.75;43.75;;;;;2.32;64.24;102434.75;5016832;28;46198;-61
2023/01/29 08:04:05;;;;;;;;;48.50;42.75;;;;;2.42;63.99;102451.19;4996655;27;45724;-61
2023/01/29 08:06:31;;;;;;;;;52.50;45.00;;;;;2.34;64.04;102435.47;5015947;28;45366;-60
2023/01/29 08:08:58;;;;;;;;;63.25;46.25;;;;;2.42;63.86;102445.75;5016745;28;45733;-60
2023/01/29 08:11:24;;;;;;;;;44.50;38.25;;;;;2.45;64.14;102445.50;5016567;28;45716;-61
2023/01/29 08:13:49;;;;;;;;;57.50;44.75;;;;;2.44;63.92;102451.91;5031873;28;45504;-60
2023/01/29 08:16:15;;;;;;;;;55.25;43.75;;;;;2.28;64.05;102430.53;5016643;28;45965;-60
2023/01/29 08:18:46;;;;;;;;;62.00;47.50;;;;;2.41;64.06;102452.16;5015692;28;45392;-60
2023/01/29 08:21:12;;;;;;;;;57.25;43.50;;;;;2.40;64.09;102455.84;5015932;28;45619;-60
2023/01/29 08:23:37;;;;;;;;;52.00;44.50;;;;;2.20;64.41;102423.00;5031915;28;45334;-60
2023/01/29 08:26:03;;;;;;;;;53.25;44.00;;;;;2.30;64.22;102444.84;5016146;28;45494;-61
2023/01/29 08:28:28;;;;;;;;;52.75;46.00;;;;;2.35;64.53;102449.91;5011741;28;45255;-61
2023/01/29 08:30:54;;;;;;;;;56.75;46.25;;;;;2.34;64.38;102429.22;5005888;28;45476;-60
2023/01/29 08:33:19;;;;;;;;;53.25;45.50;;;;;2.44;64.30;102444.66;5014206;28;45535;-59
2023/01/29 08:35:49;;;;;;;;;62.50;47.00;;;;;2.20;64.22;102397.72;5013205;28;45333;-59
2023/01/29 08:38:15;;;;;;;;;69.50;47.25;;;;;2.53;64.22;102450.34;5016334;28;45455;-59
2023/01/29 08:40:40;;;;;;;;;45.25;37.25;;;;;2.52;64.12;102446.75;5012048;28;46604;-62
2023/01/29 08:43:06;;;;;;;;;60.25;45.00;;;;;2.56;63.66;102445.56;5013054;28;45460;-61
2023/01/29 08:45:32;;;;;;;;;52.00;44.00;;;;;2.57;63.78;102447.28;5015836;28;45437;-59
2023/01/29 08:47:58;;;;;;;;;58.25;45.25;;;;;2.30;63.78;102407.75;5016296;28;45662;-61
2023/01/29 08:50:23;;;;;;;;;52.75;44.25;;;;;2.64;63.88;102463.97;5015703;28;46065;-57
2023/01/29 08:52:49;;;;;;;;;54.75;46.75;;;;;2.70;63.72;102455.38;5014801;28;45342;-60
2023/01/29 08:55:14;;;;;;;;;53.50;43.00;;;;;2.74;63.48;102458.69;5015855;28;45778;-59
2023/01/29 08:57:40;;;;;;;;;62.50;48.50;;;;;2.77;63.49;102466.59;5031391;28;45327;-58
2023/01/29 09:00:09;;;;;;;;;59.50;45.75;;;;;2.77;62.91;102477.44;5014789;28;46130;-57
2023/01/29 09:02:35;;;;;;;;;47.00;43.00;;;;;2.74;64.20;102463.25;5014282;28;46041;-59
2023/01/29 09:05:01;;;;;;;;;54.25;44.00;;;;;2.85;63.15;102491.25;5015894;28;45480;-59
2023/01/29 09:07:28;;;;;;;;;58.50;46.50;;;;;2.60;62.85;102454.31;5015922;28;45567;-59
2023/01/29 09:09:54;;;;;;;;;56.00;46.25;;;;;2.77;63.08;102487.44;5015564;28;46236;-60
2023/01/29 09:12:19;;;;;;;;;52.25;43.75;;;;;2.75;62.49;102486.66;5015463;28;45321;-59
2023/01/29 09:14:45;;;;;;;;;57.00;44.25;;;;;2.81;63.01;102497.06;5031192;28;45361;-61
2023/01/29 09:17:11;;;;;;;;;62.75;46.25;;;;;2.78;62.93;102490.00;5015955;28;45507;-60
2023/01/29 09:19:36;;;;;;;;;57.00;42.50;;;;;2.80;62.80;102490.78;5030608;28;46257;-62
2023/01/29 09:22:02;;;;;;;;;68.00;49.50;;;;;2.79;62.93;102483.63;5015359;28;45400;-60
2023/01/29 09:24:27;;;;;;;;;53.25;45.25;;;;;2.78;62.91;102470.19;5030697;28;45346;-60
2023/01/29 09:26:53;;;;;;;;;60.75;43.00;;;;;2.91;63.09;102489.94;5015869;28;45312;-60
2023/01/29 09:29:18;;;;;;;;;53.25;45.75;;;;;2.96;63.06;102495.00;5007368;28;46442;-59
2023/01/29 09:31:43;;;;;;;;;62.00;47.25;;;;;2.96;62.81;102484.16;5009868;28;45416;-60
2023/01/29 09:34:09;;;;;;;;;56.50;43.25;;;;;2.82;62.60;102472.53;5014348;28;45370;-60
2023/01/29 09:36:34;;;;;;;;;51.75;45.25;;;;;2.95;62.53;102482.44;5030412;28;45417;-60
2023/01/29 09:39:00;;;;;;;;;55.25;45.00;;;;;2.42;62.95;102395.09;5015444;28;46504;-60
2023/01/29 09:41:51;;;;;;;;;41.00;35.00;;;;;2.58;62.49;102421.06;5015480;28;45346;-59
2023/01/29 09:44:23;;;;;;;;;57.75;49.25;;;;;2.89;62.57;102470.22;5007314;28;45464;-60
2023/01/29 09:46:50;;;;;;;;;61.25;46.75;;;;;2.59;62.52;102411.94;5027565;28;45465;-60
2023/01/29 09:49:15;;;;;;;;;52.00;43.50;;;;;2.98;62.75;102480.34;5012886;28;45851;-60
2023/01/29 09:51:43;;;;;;;;;59.25;44.50;;;;;2.93;62.52;102476.28;5028931;28;45721;-62
2023/01/29 09:54:44;;;;;;;;;52.25;45.00;;;;;2.94;62.76;102486.97;5029751;28;45372;-62
2023/01/29 09:57:10;;;;;;;;;58.00;48.25;;;;;3.03;62.75;102481.84;5013010;28;45783;-62
2023/01/29 09:59:36;;;;;;;;;60.50;45.25;;;;;2.81;62.78;102440.97;5029237;28;45459;-62
2023/01/29 10:02:34;;;;;;;;;53.50;44.75;;;;;2.66;62.64;102428.59;5027813;28;45556;-61
2023/01/29 10:05:00;;;;;;;;;62.50;47.00;;;;;3.12;62.08;102489.25;5027668;28;45398;-60
2023/01/29 10:07:54;;;;;;;;;55.50;45.25;;;;;3.15;62.41;102485.44;5012897;28;45490;-60
2023/01/29 10:10:34;;;;;;;;;66.50;49.75;;;;;3.01;62.43;102459.38;5015091;28;46369;-60
2023/01/29 10:13:10;;;;;;;;;51.20;43.00;;;;;3.15;62.05;102475.44;5028657;28;45540;-61
2023/01/29 10:15:54;;;;;;;;;68.00;49.00;;;;;3.28;61.95;102477.19;5026743;28;45459;-60
2023/01/29 10:18:23;;;;;;;;;55.00;43.25;;;;;3.11;62.24;102444.97;5029107;28;45411;-60
2023/01/29 10:20:51;;;;;;;;;63.00;49.00;;;;;3.10;62.05;102436.97;5013286;28;46407;-60
2023/01/29 10:23:32;;;;;;;;;59.75;45.75;;;;;3.27;62.17;102451.03;5013518;28;45468;-59
2023/01/29 10:25:57;;;;;;;;;50.25;44.00;;;;;3.37;61.84;102443.91;5012283;28;45519;-61
2023/01/29 10:28:36;;;;;;;;;60.25;46.75;;;;;3.60;61.42;102473.78;5013874;28;45552;-62
2023/01/29 10:31:26;;;;;;;;;62.25;47.75;;;;;3.64;61.14;102465.25;5028051;28;46179;-61
2023/01/29 10:33:57;;;;;;;;;55.00;42.40;;;;;3.65;60.81;102460.69;5011866;28;45527;-61
2023/01/29 10:36:31;;;;;;;;;60.75;46.00;;;;;3.67;60.78;102456.00;5013597;28;45422;-61
2023/01/29 10:38:57;;;;;;;;;61.75;43.75;;;;;3.72;60.94;102459.22;5027811;28;45400;-61
2023/01/29 10:41:42;;;;;;;;;49.50;43.75;;;;;3.47;61.47;102396.00;5028485;28;46407;-61
2023/01/29 10:44:28;;;;;;;;;63.40;47.40;;;;;3.61;61.28;102413.03;5017085;28;45455;-60
2023/01/29 10:46:57;;;;;;;;;62.25;46.50;;;;;3.78;61.46;102431.56;5044819;28;45530;-61
2023/01/29 10:49:55;;;;;;;;;54.25;45.50;;;;;3.79;61.37;102430.56;5013279;28;45302;-61
2023/01/29 10:52:32;;;;;;;;;67.25;52.00;;;;;3.91;60.78;102427.81;4987932;28;46698;-60
2023/01/29 10:55:08;;;;;;;;;59.00;45.20;;;;;3.85;60.96;102412.88;5012924;28;45369;-60
2023/01/29 10:57:56;;;;;;;;;54.50;44.00;;;;;4.06;59.99;102428.41;5011887;28;45880;-61
2023/01/29 11:00:26;;;;;;;;;58.75;46.25;;;;;4.17;59.66;102420.22;5015364;28;45330;-61
2023/01/29 11:02:51;;;;;;;;;59.75;49.00;;;;;4.26;60.39;102415.88;5030038;28;45907;-61
2023/01/29 11:05:30;;;;;;;;;65.50;46.75;;;;;4.33;60.19;102417.06;5016125;28;45445;-60
2023/01/29 11:08:13;;;;;;;;;62.20;47.80;;;;;4.49;59.24;102418.50;5031673;28;45415;-61
2023/01/29 11:11:16;;;;;;;;;58.25;46.75;;;;;4.58;59.55;102416.84;5030116;28;45629;-62
2023/01/29 11:13:57;;;;;;;;;58.00;48.00;;;;;4.42;58.68;102385.53;5010748;28;47194;-63
2023/01/29 11:16:23;;;;;;;;;43.00;37.60;;;;;4.67;58.72;102417.91;5013383;28;45639;-62
2023/01/29 11:18:54;;;;;;;;;51.50;40.50;;;;;4.80;58.18;102406.88;5015095;28;45347;-62
2023/01/29 11:21:20;;;;;;;;;34.00;30.75;;;;;4.93;57.65;102403.91;5030566;28;45722;-59
2023/01/29 11:23:45;;;;;;;;;60.25;44.75;;;;;5.13;56.95;102404.91;5014456;28;45436;-60
2023/01/29 11:26:12;;;;;;;;;51.00;42.75;;;;;5.26;56.94;102397.38;5014580;28;45406;-60
2023/01/29 11:28:42;;;;;;;;;51.80;41.00;;;;;5.26;56.39;102363.84;5013442;28;45465;-61
2023/01/29 11:31:18;;;;;;;;;45.00;40.20;;;;;5.57;56.20;102380.16;5016512;28;45356;-62
2023/01/29 11:33:44;;;;;;;;;40.60;35.40;;;;;5.92;55.72;102395.16;4998232;28;46199;-59
2023/01/29 11:36:31;;;;;;;;;48.20;39.40;;;;;6.26;53.97;102391.22;5015809;28;45393;-61
2023/01/29 11:39:19;;;;;;;;;48.80;39.00;;;;;6.83;53.44;102382.25;5014781;28;45317;-63
2023/01/29 11:41:49;;;;;;;;;40.75;37.50;;;;;7.82;51.12;102333.53;5016184;28;45403;-63
2023/01/29 11:44:25;;;;;;;;;36.80;34.00;;;;;8.37;49.62;102359.00;5022010;28;46632;-64
2023/01/29 11:46:51;;;;;;;;;32.00;25.00;;;;;7.75;49.34;102332.44;5014224;28;45365;-62
2023/01/29 11:49:31;;;;;;;;;20.50;18.50;;;;;7.50;49.95;102370.41;5009837;28;45586;-62
2023/01/29 11:51:57;;;;;;;;;21.20;18.80;;;;;6.81;50.89;102343.34;5013340;28;45479;-61
2023/01/29 11:54:25;;;;;;;;;29.00;25.60;;;;;6.59;51.97;102378.16;5029076;28;46073;-60